createdAt,value
2023-02-01T00:02:44.213Z,100.14
2023-02-01T00:19:44.364Z,99.49
2023-02-01T00:28:44.506Z,97.63
2023-02-01T00:29:44.521Z,101.20
2023-02-01T00:30:44.545Z,93.74
2023-02-01T00:31:44.741Z,98.09
2023-02-01T00:32:44.553Z,97.60
2023-02-01T00:33:44.575Z,96.63
2023-02-01T00:34:44.598Z,98.58
2023-02-01T00:35:44.612Z,97.02
2023-02-01T00:36:44.617Z,101.09
2023-02-01T00:37:44.727Z,98.38
2023-02-01T00:38:44.717Z,98.69
2023-02-01T00:39:44.677Z,97.77
2023-02-01T00:40:44.735Z,97.74
2023-02-01T00:41:44.717Z,97.55
2023-02-01T00:42:45.738Z,96.61
2023-02-01T00:43:44.748Z,99.66
2023-02-01T00:44:44.765Z,99.55
2023-02-01T00:45:44.794Z,96.95
2023-02-01T00:46:44.865Z,97.67
2023-02-01T00:47:44.832Z,99.35
2023-02-01T00:48:44.854Z,99.47
2023-02-01T00:49:44.866Z,99.09
2023-02-01T00:50:44.878Z,97.62
2023-02-01T00:51:44.887Z,98.38
2023-02-01T00:52:44.912Z,96.31
2023-02-01T00:53:44.938Z,96.55
2023-02-01T00:54:44.968Z,95.80
2023-02-01T00:55:45.031Z,98.03
2023-02-01T00:56:45.023Z,97.24
2023-02-01T00:57:45.012Z,99.02
2023-02-01T00:58:46.018Z,96.71
2023-02-01T00:59:45.043Z,96.60
2023-02-01T01:00:45.085Z,97.21
2023-02-01T01:01:45.210Z,95.57
2023-02-01T01:02:45.106Z,96.37
2023-02-01T01:03:45.109Z,96.99
2023-02-01T01:04:45.134Z,96.91
2023-02-01T01:05:45.162Z,96.78
2023-02-01T01:06:45.184Z,98.84
2023-02-01T01:07:45.214Z,96.47
2023-02-01T01:08:45.244Z,95.90
2023-02-01T01:09:45.253Z,95.45
2023-02-01T01:10:45.273Z,97.39
2023-02-01T01:11:45.299Z,97.83
2023-02-01T01:12:45.324Z,97.17
2023-02-01T01:13:45.341Z,96.63
2023-02-01T01:14:45.429Z,98.55
2023-02-01T01:15:45.414Z,95.81
2023-02-01T01:16:45.413Z,96.00
2023-02-01T01:17:45.412Z,95.99
2023-02-01T01:18:45.436Z,97.81
2023-02-01T01:19:45.449Z,100.08
2023-02-01T01:20:45.478Z,96.32
2023-02-01T01:21:45.755Z,92.37
2023-02-01T01:22:45.580Z,96.17
2023-02-01T01:23:45.600Z,96.82
2023-02-01T01:24:45.545Z,97.03
2023-02-01T01:25:45.566Z,94.10
2023-02-01T01:26:45.645Z,94.00
2023-02-01T01:27:45.609Z,95.81
2023-02-01T01:28:45.630Z,98.25
2023-02-01T01:29:45.642Z,95.88
2023-02-01T01:30:45.684Z,95.36
2023-02-01T01:31:45.735Z,97.51
2023-02-01T01:32:45.699Z,95.68
2023-02-01T01:33:45.711Z,95.93
2023-02-01T01:34:45.747Z,94.65
2023-02-01T01:35:45.762Z,94.13
2023-02-01T01:36:45.783Z,93.89
2023-02-01T01:37:45.814Z,95.67
2023-02-01T01:38:45.890Z,93.20
2023-02-01T01:39:45.939Z,95.94
2023-02-01T01:40:45.875Z,94.21
2023-02-01T01:41:45.890Z,94.92
2023-02-01T01:42:45.904Z,92.64
2023-02-01T01:43:45.920Z,95.13
2023-02-01T01:44:45.939Z,94.22
2023-02-01T01:46:45.983Z,94.75
2023-02-01T01:47:45.986Z,93.36
2023-02-01T01:48:46.003Z,95.27
2023-02-01T01:49:46.024Z,91.75
2023-02-01T01:50:46.108Z,93.02
2023-02-01T01:51:46.064Z,93.36
2023-02-01T01:52:46.091Z,93.40
2023-02-01T01:53:46.090Z,92.42
2023-02-01T01:54:46.110Z,93.54
2023-02-01T01:55:46.149Z,92.50
2023-02-01T01:56:46.217Z,92.69
2023-02-01T01:57:46.224Z,94.65
2023-02-01T01:58:46.224Z,94.81
2023-02-01T01:59:46.190Z,93.28
2023-02-01T02:00:46.232Z,88.85
2023-02-01T02:01:46.263Z,89.63
2023-02-01T02:02:46.289Z,91.60
2023-02-01T02:03:46.244Z,94.06
2023-02-01T02:04:46.281Z,92.09
2023-02-01T02:05:46.295Z,91.57
2023-02-01T02:06:46.349Z,92.70
2023-02-01T02:07:46.332Z,90.96
2023-02-01T02:08:46.347Z,92.40
2023-02-01T02:09:59.474Z,91.12
2023-02-01T02:11:46.367Z,91.75
2023-02-01T02:12:46.380Z,91.48
2023-02-01T02:13:46.369Z,92.65
2023-02-01T02:14:46.381Z,93.53
2023-02-01T02:15:46.392Z,89.76
2023-02-01T02:16:46.397Z,92.61
2023-02-01T02:17:46.408Z,94.19
2023-02-01T02:18:46.408Z,91.02
2023-02-01T02:19:46.409Z,91.31
2023-02-01T02:20:46.420Z,93.65
2023-02-01T02:21:46.418Z,92.91
2023-02-01T02:22:46.417Z,89.37
2023-02-01T02:23:46.425Z,89.83
2023-02-01T02:24:46.424Z,90.18
2023-02-01T02:25:46.442Z,89.52
2023-02-01T02:26:46.463Z,92.40
2023-02-01T02:27:46.449Z,89.92
2023-02-01T02:28:46.448Z,90.73
2023-02-01T02:29:46.460Z,91.87
2023-02-01T02:30:46.489Z,90.76
2023-02-01T02:31:46.495Z,89.93
2023-02-01T02:32:46.455Z,90.77
2023-02-01T02:33:46.472Z,88.35
2023-02-01T02:34:46.472Z,87.69
2023-02-01T02:35:46.469Z,90.30
2023-02-01T02:36:46.477Z,93.25
2023-02-01T02:37:46.479Z,89.61
2023-02-01T02:38:46.475Z,90.09
2023-02-01T02:39:46.480Z,88.10
2023-02-01T02:40:46.472Z,91.80
2023-02-01T02:41:46.779Z,85.20
2023-02-01T02:42:46.504Z,89.64
2023-02-01T02:43:46.485Z,86.88
2023-02-01T02:44:46.487Z,87.27
2023-02-01T02:45:46.523Z,90.44
2023-02-01T02:46:46.566Z,89.12
2023-02-01T02:47:46.489Z,86.91
2023-02-01T02:48:46.610Z,88.79
2023-02-01T02:49:46.483Z,90.38
2023-02-01T02:50:46.503Z,86.59
2023-02-01T02:51:46.529Z,89.90
2023-02-01T02:52:46.546Z,90.55
2023-02-01T02:53:46.562Z,88.96
2023-02-01T02:54:46.591Z,88.15
2023-02-01T02:55:46.653Z,87.18
2023-02-01T02:56:46.600Z,88.85
2023-02-01T02:57:46.631Z,88.22
2023-02-01T02:58:46.630Z,87.23
2023-02-01T02:59:46.788Z,85.29
2023-02-01T03:00:46.681Z,90.54
2023-02-01T03:01:46.685Z,88.73
2023-02-01T03:02:46.766Z,87.71
2023-02-01T03:03:46.707Z,87.10
2023-02-01T03:04:46.738Z,87.09
2023-02-01T03:05:46.764Z,89.74
2023-02-01T03:06:46.832Z,86.84
2023-02-01T03:07:46.764Z,90.33
2023-02-01T03:08:46.775Z,86.65
2023-02-01T03:09:46.787Z,86.94
2023-02-01T03:10:46.801Z,86.15
2023-02-01T03:11:46.819Z,85.28
2023-02-01T03:12:46.838Z,86.67
2023-02-01T03:13:47.787Z,85.53
2023-02-01T03:14:46.885Z,88.46
2023-02-01T03:15:46.967Z,86.09
2023-02-01T03:16:46.967Z,89.12
2023-02-01T03:17:46.951Z,88.37
2023-02-01T03:18:46.946Z,85.20
2023-02-01T03:19:46.961Z,84.00
2023-02-01T03:20:46.989Z,88.06
2023-02-01T03:21:47.004Z,88.90
2023-02-01T03:22:47.015Z,84.14
2023-02-01T03:23:47.027Z,88.10
2023-02-01T03:24:47.047Z,84.31
2023-02-01T03:25:47.096Z,85.37
2023-02-01T03:26:47.106Z,82.93
2023-02-01T03:27:47.102Z,89.05
2023-02-01T03:28:47.120Z,86.11
2023-02-01T03:29:47.139Z,83.08
2023-02-01T03:30:47.168Z,83.87
2023-02-01T03:31:47.228Z,85.48
2023-02-01T03:32:47.189Z,84.57
2023-02-01T03:33:47.214Z,84.90
2023-02-01T03:34:47.225Z,84.88
2023-02-01T03:35:47.233Z,83.28
2023-02-01T03:36:47.255Z,86.52
2023-02-01T03:37:47.305Z,86.94
2023-02-01T03:38:47.368Z,83.89
2023-02-01T03:39:47.309Z,84.35
2023-02-01T03:40:47.324Z,83.25
2023-02-01T03:41:47.346Z,87.04
2023-02-01T03:42:47.351Z,86.90
2023-02-01T03:43:47.366Z,82.73
2023-02-01T03:44:47.390Z,82.96
2023-02-01T03:45:47.481Z,80.06
2023-02-01T03:46:48.292Z,84.59
2023-02-01T03:47:47.419Z,81.40
2023-02-01T03:48:47.473Z,83.92
2023-02-01T03:49:47.447Z,84.20
2023-02-01T03:50:47.463Z,86.04
2023-02-01T03:51:47.494Z,82.64
2023-02-01T03:52:47.490Z,83.21
2023-02-01T03:53:47.499Z,82.28
2023-02-01T03:54:47.513Z,86.00
2023-02-01T03:55:47.534Z,83.44
2023-02-01T03:56:47.539Z,83.64
2023-02-01T03:57:47.555Z,81.57
2023-02-01T03:58:47.570Z,81.63
2023-02-01T03:59:47.812Z,82.54
2023-02-01T04:00:47.577Z,79.73
2023-02-01T04:01:47.577Z,79.47
2023-02-01T04:02:47.628Z,80.29
2023-02-01T04:03:47.595Z,81.88
2023-02-01T04:04:47.630Z,78.90
2023-02-01T04:05:47.615Z,76.75
2023-02-01T04:06:47.626Z,81.32
2023-02-01T04:07:47.647Z,81.36
2023-02-01T04:08:47.695Z,80.94
2023-02-01T04:09:47.737Z,78.78
2023-02-01T04:10:47.787Z,80.21
2023-02-01T04:11:47.825Z,81.57
2023-02-01T04:12:47.868Z,79.43
2023-02-01T04:13:47.916Z,83.70
2023-02-01T04:14:47.985Z,82.11
2023-02-01T04:15:48.032Z,81.75
2023-02-01T04:16:48.195Z,80.34
2023-02-01T04:17:48.254Z,81.63
2023-02-01T04:18:48.240Z,80.72
2023-02-01T04:19:48.302Z,81.02
2023-02-01T04:22:48.517Z,77.76
2023-02-01T04:27:48.835Z,77.96
2023-02-01T04:34:49.232Z,80.23
2023-02-01T04:35:49.303Z,76.16
2023-02-01T04:36:49.356Z,78.02
2023-02-01T04:38:49.457Z,76.32
2023-02-01T04:39:49.519Z,76.64
2023-02-01T04:40:49.588Z,74.90
2023-02-01T04:41:49.625Z,76.30
2023-02-01T04:42:49.696Z,76.08
2023-02-01T04:43:49.720Z,75.89
2023-02-01T04:44:49.793Z,75.84
2023-02-01T04:45:50.029Z,74.22
2023-02-01T04:46:49.901Z,75.70
2023-02-01T04:47:49.956Z,78.02
2023-02-01T04:48:50.100Z,74.80
2023-02-01T04:49:50.063Z,75.64
2023-02-01T04:50:50.110Z,77.39
2023-02-01T04:51:50.161Z,76.19
2023-02-01T04:52:50.212Z,72.22
2023-02-01T04:53:50.267Z,75.04
2023-02-01T04:54:50.325Z,76.47
2023-02-01T04:55:50.402Z,76.98
2023-02-01T04:56:50.458Z,74.53
2023-02-01T04:57:50.468Z,75.26
2023-02-01T04:58:50.521Z,73.92
2023-02-01T04:59:50.572Z,71.59
2023-02-01T05:00:50.631Z,73.14
2023-02-01T05:01:50.690Z,74.83
2023-02-01T05:02:50.730Z,74.16
2023-02-01T05:03:50.770Z,73.33
2023-02-01T05:04:50.868Z,74.01
2023-02-01T05:06:50.915Z,70.08
2023-02-01T05:07:50.963Z,73.78
2023-02-01T05:08:51.017Z,74.92
2023-02-01T05:09:51.061Z,74.97
2023-02-01T05:10:51.105Z,75.01
2023-02-01T05:11:51.142Z,74.37
2023-02-01T05:12:51.187Z,72.40
2023-02-01T05:13:51.236Z,73.15
2023-02-01T05:14:51.287Z,72.88
2023-02-01T05:16:52.332Z,72.97
2023-02-01T05:17:51.416Z,74.75
2023-02-01T05:18:51.459Z,71.68
2023-02-01T05:19:51.506Z,70.61
2023-02-01T05:20:51.561Z,73.88
2023-02-01T05:21:51.602Z,73.51
2023-02-01T05:22:51.648Z,75.30
2023-02-01T05:23:51.781Z,72.16
2023-02-01T05:24:51.728Z,71.48
2023-02-01T05:25:51.783Z,72.17
2023-02-01T05:26:51.851Z,74.05
2023-02-01T05:28:51.936Z,75.86
2023-02-01T05:29:51.978Z,72.03
2023-02-01T05:30:52.133Z,73.30
2023-02-01T05:31:52.239Z,73.57
2023-02-01T05:34:52.840Z,71.14
2023-02-01T05:35:52.284Z,72.76
2023-02-01T05:36:52.335Z,73.83
2023-02-01T05:37:52.377Z,70.60
2023-02-01T05:38:52.443Z,71.74
2023-02-01T05:39:52.501Z,70.22
2023-02-01T05:40:52.544Z,72.28
2023-02-01T05:41:52.602Z,71.26
2023-02-01T05:42:52.637Z,73.96
2023-02-01T05:43:52.708Z,72.81
2023-02-01T05:44:52.760Z,71.65
2023-02-01T05:45:52.800Z,71.99
2023-02-01T05:46:52.845Z,69.19
2023-02-01T05:47:52.910Z,70.34
2023-02-01T05:48:52.967Z,71.60
2023-02-01T05:49:53.051Z,72.83
2023-02-01T05:50:53.083Z,70.84
2023-02-01T05:51:53.146Z,68.48
2023-02-01T05:52:53.921Z,69.94
2023-02-01T05:53:53.262Z,72.44
2023-02-01T05:54:53.314Z,70.69
2023-02-01T05:55:53.385Z,70.40
2023-02-01T05:56:53.436Z,72.24
2023-02-01T05:57:53.499Z,70.78
2023-02-01T05:58:53.546Z,69.08
2023-02-01T05:59:53.603Z,70.30
2023-02-01T06:00:53.677Z,68.89
2023-02-01T06:01:53.729Z,66.86
2023-02-01T06:02:53.847Z,65.04
2023-02-01T06:03:53.910Z,70.96
2023-02-01T06:04:53.919Z,70.18
2023-02-01T06:05:53.990Z,69.97
2023-02-01T06:06:54.044Z,69.36
2023-02-01T06:07:54.109Z,69.76
2023-02-01T06:08:54.166Z,69.70
2023-02-01T06:09:54.241Z,69.39
2023-02-01T06:10:54.314Z,69.29
2023-02-01T06:11:54.368Z,70.16
2023-02-01T06:12:54.434Z,69.20
2023-02-01T06:13:54.499Z,68.56
2023-02-01T06:14:54.575Z,66.33
2023-02-01T06:15:54.712Z,71.99
2023-02-01T06:16:54.716Z,66.93
2023-02-01T06:17:54.788Z,68.40
2023-02-01T06:18:54.933Z,65.94
2023-02-01T06:19:54.931Z,67.78
2023-02-01T06:20:54.992Z,68.75
2023-02-01T06:21:55.040Z,65.20
2023-02-01T06:22:55.116Z,65.75
2023-02-01T06:23:55.220Z,66.88
2023-02-01T06:24:55.204Z,63.53
2023-02-01T06:25:55.268Z,64.97
2023-02-01T06:26:55.384Z,62.03
2023-02-01T06:27:55.345Z,62.66
2023-02-01T06:28:55.388Z,66.35
2023-02-01T06:29:55.453Z,66.98
2023-02-01T06:30:55.685Z,71.56
2023-02-01T06:31:55.623Z,72.86
2023-02-01T06:32:55.702Z,80.14
2023-02-01T06:33:55.694Z,76.03
2023-02-01T06:34:55.697Z,81.67
2023-02-01T06:35:55.753Z,86.00
2023-02-01T06:36:55.740Z,88.52
2023-02-01T06:37:55.762Z,97.01
2023-02-01T06:38:55.772Z,98.83
2023-02-01T06:39:55.820Z,105.05
2023-02-01T06:40:55.807Z,112.21
2023-02-01T06:41:55.802Z,112.57
2023-02-01T06:42:55.784Z,124.68
2023-02-01T06:43:55.788Z,130.59
2023-02-01T06:44:55.795Z,135.34
2023-02-01T06:45:55.769Z,136.35
2023-02-01T06:46:57.321Z,146.61
2023-02-01T06:47:55.795Z,151.46
2023-02-01T06:48:55.806Z,153.52
2023-02-01T06:49:55.793Z,161.45
2023-02-01T06:50:55.812Z,160.80
2023-02-01T06:51:55.839Z,164.31
2023-02-01T06:52:56.387Z,114.41
2023-02-01T06:53:55.927Z,150.06
2023-02-01T06:54:56.019Z,152.85
2023-02-01T06:55:56.041Z,149.02
2023-02-01T06:56:56.080Z,147.55
2023-02-01T06:57:56.112Z,150.17
2023-02-01T06:58:56.161Z,152.34
2023-02-01T06:59:56.148Z,156.65
2023-02-01T07:00:56.228Z,159.53
2023-02-01T07:01:56.209Z,164.12
2023-02-01T07:02:56.142Z,168.16
2023-02-01T07:03:56.166Z,171.61
2023-02-01T07:04:56.180Z,176.90
2023-02-01T07:05:56.192Z,177.55
2023-02-01T07:06:56.269Z,185.38
2023-02-01T07:07:56.326Z,190.96
2023-02-01T07:08:56.413Z,191.06
2023-02-01T07:09:56.436Z,197.37
2023-02-01T07:10:56.571Z,202.01
2023-02-01T07:11:56.611Z,205.94
2023-02-01T07:12:56.584Z,210.28
2023-02-01T07:13:56.659Z,211.88
2023-02-01T07:14:56.684Z,217.59
2023-02-01T07:15:56.741Z,221.73
2023-02-01T07:16:56.789Z,226.74
2023-02-01T07:17:56.819Z,226.49
2023-02-01T07:18:56.895Z,231.73
2023-02-01T07:19:56.965Z,231.70
2023-02-01T07:20:56.962Z,232.97
2023-02-01T07:21:57.008Z,240.08
2023-02-01T07:22:57.075Z,247.17
2023-02-01T07:23:57.088Z,250.00
2023-02-01T07:24:57.131Z,249.41
2023-02-01T07:25:57.165Z,249.50
2023-02-01T07:26:57.211Z,248.29
2023-02-01T07:27:57.260Z,249.78
2023-02-01T07:28:57.301Z,250.00
2023-02-01T07:29:57.330Z,247.85
2023-02-01T07:30:57.432Z,248.41
2023-02-01T07:31:57.403Z,249.51
2023-02-01T07:32:57.434Z,250.00
2023-02-01T07:33:57.439Z,249.73
2023-02-01T07:34:57.535Z,250.00
2023-02-01T07:35:57.489Z,250.00
2023-02-01T07:36:57.522Z,246.04
2023-02-01T07:37:57.554Z,249.65
2023-02-01T07:38:57.574Z,247.99
2023-02-01T07:39:57.588Z,249.86
2023-02-01T07:40:57.678Z,249.91
2023-02-01T07:41:57.640Z,245.59
2023-02-01T07:42:57.675Z,247.01
2023-02-01T07:43:57.700Z,246.83
2023-02-01T07:45:03.202Z,245.96
2023-02-01T07:45:58.828Z,246.14
2023-02-01T07:46:57.692Z,246.65
2023-02-01T07:47:57.678Z,246.79
2023-02-01T07:48:57.651Z,247.73
2023-02-01T07:49:57.643Z,247.07
2023-02-01T07:50:57.680Z,245.75
2023-02-01T07:51:57.601Z,247.62
2023-02-01T07:52:57.631Z,246.48
2023-02-01T07:53:57.701Z,248.19
2023-02-01T07:54:57.584Z,247.40
2023-02-01T07:55:57.556Z,246.80
2023-02-01T07:56:57.518Z,247.73
2023-02-01T07:57:57.509Z,250.00
2023-02-01T07:58:57.584Z,249.50
2023-02-01T07:59:57.575Z,250.00
2023-02-01T08:00:57.666Z,249.52
2023-02-01T08:01:57.642Z,245.19
2023-02-01T08:02:57.653Z,246.96
2023-02-01T08:03:58.392Z,246.41
2023-02-01T08:04:57.783Z,250.00
2023-02-01T08:05:57.720Z,247.24
2023-02-01T08:06:57.748Z,243.81
2023-02-01T08:07:57.784Z,238.57
2023-02-01T08:08:57.815Z,238.55
2023-02-01T08:09:57.858Z,243.19
2023-02-01T08:10:57.911Z,245.70
2023-02-01T08:11:57.909Z,249.30
2023-02-01T08:12:57.951Z,249.05
2023-02-01T08:13:57.977Z,248.04
2023-02-01T08:14:58.018Z,245.57
2023-02-01T08:15:58.059Z,244.57
2023-02-01T08:16:58.072Z,246.09
2023-02-01T08:31:58.550Z,60.14
2023-02-01T08:52:58.902Z,64.35
2023-02-01T08:56:59.198Z,76.05
2023-02-01T09:04:59.633Z,79.50
2023-02-01T10:17:00.893Z,208.66
2023-02-01T10:18:00.802Z,208.82
2023-02-01T10:19:00.788Z,208.40
2023-02-01T10:20:00.787Z,208.70
2023-02-01T10:21:00.781Z,209.11
2023-02-01T10:22:01.440Z,208.50
2023-02-01T10:23:19.523Z,208.53
2023-02-01T10:24:06.254Z,208.63
2023-02-01T10:25:01.768Z,208.67
2023-02-01T10:26:01.460Z,208.89
2023-02-01T10:27:00.725Z,208.76
2023-02-01T10:28:00.699Z,208.31
2023-02-01T10:29:00.679Z,208.19
2023-02-01T10:30:01.081Z,208.29
2023-02-01T10:31:00.774Z,207.93
2023-02-01T10:32:00.687Z,206.71
2023-02-01T10:33:00.612Z,205.85
2023-02-01T10:34:00.601Z,206.29
2023-02-01T10:35:00.598Z,205.85
2023-02-01T10:36:01.450Z,204.89
2023-02-01T10:37:00.587Z,205.04
2023-02-01T10:38:00.563Z,204.08
2023-02-01T10:39:00.579Z,203.49
2023-02-01T10:40:00.548Z,203.46
2023-02-01T10:41:00.527Z,202.07
2023-02-01T10:42:00.530Z,201.27
2023-02-01T10:43:00.510Z,200.54
2023-02-01T10:44:00.500Z,200.81
2023-02-01T10:45:00.491Z,199.57
2023-02-01T10:46:00.557Z,198.48
2023-02-01T10:47:00.530Z,198.12
2023-02-01T10:48:01.462Z,197.46
2023-02-01T10:49:01.371Z,197.39
2023-02-01T10:50:00.437Z,195.49
2023-02-01T10:51:00.432Z,194.76
2023-02-01T10:52:00.413Z,195.40
2023-02-01T10:53:00.442Z,195.84
2023-02-01T10:54:00.401Z,194.88
2023-02-01T10:55:00.421Z,193.97
2023-02-01T10:56:00.393Z,194.36
2023-02-01T10:57:00.650Z,193.66
2023-02-01T10:58:00.384Z,192.87
2023-02-01T10:59:00.442Z,192.48
2023-02-01T11:00:00.388Z,191.55
2023-02-01T11:01:00.959Z,191.13
2023-02-01T11:02:00.443Z,191.13
2023-02-01T11:03:00.382Z,191.39
2023-02-01T11:04:00.364Z,190.22
2023-02-01T11:05:00.341Z,188.76
2023-02-01T11:06:00.346Z,188.72
2023-02-01T11:07:00.334Z,188.27
2023-02-01T11:08:00.315Z,188.29
2023-02-01T11:09:00.306Z,188.03
2023-02-01T11:10:00.309Z,187.37
2023-02-01T11:11:00.309Z,186.61
2023-02-01T11:12:00.292Z,185.43
2023-02-01T11:13:00.315Z,184.81
2023-02-01T11:14:00.339Z,184.70
2023-02-01T11:15:00.320Z,184.85
2023-02-01T11:16:00.361Z,184.03
2023-02-01T11:17:00.348Z,184.75
2023-02-01T11:18:00.341Z,184.30
2023-02-01T11:19:00.432Z,184.24
2023-02-01T11:20:00.355Z,184.01
2023-02-01T11:21:00.373Z,183.60
2023-02-01T11:22:00.451Z,183.29
2023-02-01T11:23:00.415Z,182.26
2023-02-01T11:24:00.395Z,182.94
2023-02-01T11:25:00.422Z,181.89
2023-02-01T11:26:00.435Z,180.57
2023-02-01T11:27:00.438Z,181.25
2023-02-01T11:28:00.450Z,180.96
2023-02-01T11:29:00.464Z,180.45
2023-02-01T11:30:00.484Z,180.26
2023-02-01T11:31:00.634Z,180.80
2023-02-01T11:32:00.509Z,179.83
2023-02-01T11:33:00.524Z,179.52
2023-02-01T11:34:00.559Z,178.22
2023-02-01T11:35:00.564Z,178.76
2023-02-01T11:36:00.978Z,177.69
2023-02-01T11:37:00.593Z,177.66
2023-02-01T11:38:00.615Z,177.46
2023-02-01T11:39:00.609Z,176.25
2023-02-01T11:40:00.633Z,177.34
2023-02-01T11:41:00.638Z,177.21
2023-02-01T11:42:00.672Z,175.65
2023-02-01T11:43:00.673Z,175.29
2023-02-01T11:44:00.690Z,175.81
2023-02-01T11:45:01.102Z,174.45
2023-02-01T11:46:00.787Z,175.18
2023-02-01T11:47:01.227Z,174.37
2023-02-01T11:49:01.471Z,172.93
2023-02-01T11:50:00.791Z,173.48
2023-02-01T11:51:00.988Z,172.74
2023-02-01T11:52:00.818Z,173.78
2023-02-01T11:53:00.892Z,172.41
2023-02-01T11:54:00.836Z,172.14
2023-02-01T11:55:00.863Z,170.58
2023-02-01T11:57:00.899Z,169.60
2023-02-01T11:58:01.062Z,169.44
2023-02-01T11:59:00.931Z,169.77
2023-02-01T12:00:01.151Z,168.16
2023-02-01T12:01:00.971Z,168.55
2023-02-01T12:14:01.237Z,165.86
2023-02-01T12:15:01.258Z,163.21
2023-02-01T12:16:01.311Z,163.59
2023-02-01T12:17:01.313Z,163.06
2023-02-01T12:18:01.319Z,164.30
2023-02-01T13:01:02.642Z,149.26
2023-02-01T13:02:02.701Z,149.74
2023-02-01T13:08:03.012Z,144.36
2023-02-01T13:15:03.258Z,142.91
2023-02-01T13:22:03.589Z,140.22
2023-02-01T13:23:03.640Z,139.56
2023-02-01T13:24:03.711Z,139.33
2023-02-01T13:25:03.741Z,137.72
2023-02-01T13:26:03.792Z,139.21
2023-02-01T13:27:03.852Z,137.61
2023-02-01T13:28:03.907Z,136.43
2023-02-01T13:29:03.965Z,137.74
2023-02-01T13:30:04.123Z,136.35
2023-02-01T13:31:04.190Z,137.22
2023-02-01T13:34:04.263Z,134.87
2023-02-01T13:39:04.665Z,131.53
2023-02-01T13:40:04.737Z,129.85
2023-02-01T16:43:13.616Z,106.90
2023-02-01T16:44:13.642Z,106.72
2023-02-01T16:45:13.691Z,107.34
2023-02-01T16:47:13.768Z,107.02
2023-02-01T16:48:13.831Z,106.65
2023-02-01T16:49:13.861Z,107.33
2023-02-01T16:50:22.703Z,107.13
2023-02-01T16:55:13.908Z,106.02
2023-02-01T16:56:13.936Z,106.97
2023-02-01T16:57:13.922Z,106.03
2023-02-01T16:58:13.905Z,105.76
2023-02-01T16:59:13.914Z,106.66
2023-02-01T17:00:24.022Z,105.81
2023-02-01T17:01:14.991Z,105.88
2023-02-01T17:02:13.905Z,105.97
2023-02-01T17:03:13.903Z,106.86
2023-02-01T17:04:13.926Z,104.50
2023-02-01T17:05:13.954Z,105.72
2023-02-01T17:06:13.894Z,106.19
2023-02-01T17:07:13.902Z,106.88
2023-02-01T17:08:13.888Z,104.60
2023-02-01T17:09:13.896Z,104.78
2023-02-01T17:10:16.873Z,103.41
2023-02-01T17:11:13.915Z,105.02
2023-02-01T17:12:13.882Z,105.48
2023-02-01T17:13:13.951Z,105.12
2023-02-01T17:14:13.912Z,103.57
2023-02-01T17:15:13.913Z,104.84
2023-02-01T17:16:14.026Z,103.01
2023-02-01T17:17:13.914Z,106.44
2023-02-01T17:18:13.903Z,104.88
2023-02-01T17:19:13.912Z,103.82
2023-02-01T17:20:13.915Z,104.79
2023-02-01T17:21:13.912Z,103.46
2023-02-01T17:22:14.028Z,104.39
2023-02-01T17:23:13.922Z,105.12
2023-02-01T17:24:13.930Z,105.82
2023-02-01T17:25:13.934Z,103.05
2023-02-01T17:26:13.920Z,103.70
2023-02-01T17:27:13.940Z,103.38
2023-02-01T17:28:13.941Z,103.48
2023-02-01T17:29:13.934Z,102.31
2023-02-01T17:30:13.928Z,104.97
2023-02-01T17:31:13.955Z,104.38
2023-02-01T17:32:13.972Z,106.06
2023-02-01T17:33:22.169Z,102.62
2023-02-01T17:34:14.926Z,102.85
2023-02-01T17:35:13.948Z,103.20
2023-02-01T17:36:14.006Z,103.45
2023-02-01T17:37:13.988Z,102.92
2023-02-01T17:38:13.920Z,103.46
2023-02-01T17:39:13.989Z,103.31
2023-02-01T17:40:13.920Z,104.77
2023-02-01T17:41:13.974Z,105.08
2023-02-01T17:42:13.931Z,102.40
2023-02-01T17:43:13.933Z,103.49
2023-02-01T17:44:13.939Z,104.02
2023-02-01T17:45:13.956Z,102.45
2023-02-01T17:46:13.989Z,104.01
2023-02-01T17:47:13.943Z,106.46
2023-02-01T17:48:13.989Z,104.67
2023-02-01T17:49:13.954Z,103.72
2023-02-01T17:50:14.004Z,103.13
2023-02-01T17:51:13.937Z,104.44
2023-02-01T17:52:13.968Z,104.90
2023-02-01T17:53:14.001Z,104.00
2023-02-01T18:08:14.233Z,103.78
2023-02-01T18:09:14.250Z,104.60
2023-02-01T18:10:14.259Z,104.85
2023-02-01T18:11:14.301Z,105.73
2023-02-01T18:12:14.313Z,104.13
2023-02-01T18:14:14.359Z,105.57
2023-02-01T18:15:14.385Z,107.12
2023-02-01T18:16:14.409Z,105.88
2023-02-01T18:17:14.431Z,105.68
2023-02-01T18:18:14.437Z,105.25
2023-02-01T18:19:14.446Z,106.05
2023-02-01T18:20:14.473Z,105.89
2023-02-01T18:21:14.481Z,105.79
2023-02-01T18:22:14.518Z,107.10
2023-02-01T18:23:14.558Z,104.29
2023-02-01T18:24:14.593Z,105.64
2023-02-01T18:25:14.592Z,105.74
2023-02-01T18:26:14.638Z,104.98
2023-02-01T18:27:14.657Z,105.24
2023-02-01T18:28:14.692Z,102.95
2023-02-01T18:29:14.714Z,105.53
2023-02-01T18:30:14.718Z,105.14
2023-02-01T18:31:14.859Z,105.74
2023-02-01T18:32:14.753Z,108.89
2023-02-01T18:33:14.792Z,106.43
2023-02-01T18:34:14.791Z,104.95
2023-02-01T18:35:14.822Z,107.24
2023-02-01T18:36:14.880Z,105.99
2023-02-01T18:37:14.883Z,105.39
2023-02-01T18:38:14.901Z,107.31
2023-02-01T18:39:14.930Z,105.41
2023-02-01T18:40:14.948Z,106.30
2023-02-01T18:41:14.957Z,105.75
2023-02-01T18:42:14.964Z,105.90
2023-02-01T18:43:14.991Z,107.10
2023-02-01T18:44:15.052Z,106.13
2023-02-01T18:45:14.973Z,104.52
2023-02-01T18:46:15.025Z,107.72
2023-02-01T18:47:14.978Z,107.30
2023-02-01T18:48:14.987Z,105.25
2023-02-01T18:49:14.991Z,107.66
2023-02-01T18:50:15.021Z,105.40
2023-02-01T18:51:15.013Z,107.81
2023-02-01T18:52:15.030Z,107.21
2023-02-01T18:53:15.028Z,105.59
2023-02-01T18:54:15.038Z,104.76
2023-02-01T18:55:15.044Z,108.04
2023-02-01T18:56:15.043Z,107.56
2023-02-01T18:57:15.611Z,106.18
2023-02-01T18:58:15.062Z,106.53
2023-02-01T18:59:15.064Z,106.73
2023-02-01T19:00:15.081Z,107.79
2023-02-01T19:01:15.113Z,106.40
2023-02-01T19:02:15.167Z,107.20
2023-02-01T19:03:15.125Z,105.75
2023-02-01T19:04:22.986Z,106.82
2023-02-01T19:05:16.137Z,106.91
2023-02-01T19:06:15.190Z,106.87
2023-02-01T19:07:15.143Z,106.89
2023-02-01T19:08:16.189Z,107.32
2023-02-01T19:09:15.145Z,108.12
2023-02-01T19:10:15.155Z,108.41
2023-02-01T19:11:15.193Z,105.95
2023-02-01T19:12:15.168Z,107.85
2023-02-01T19:13:16.125Z,108.64
2023-02-01T19:14:15.171Z,105.41
2023-02-01T19:15:15.184Z,106.79
2023-02-01T19:16:15.209Z,108.88
2023-02-01T19:17:15.178Z,107.45
2023-02-01T19:18:15.178Z,105.83
2023-02-01T19:19:15.177Z,107.50
2023-02-01T19:20:15.198Z,108.09
2023-02-01T19:21:15.192Z,107.86
2023-02-01T19:22:15.179Z,109.39
2023-02-01T19:23:15.208Z,106.46
2023-02-01T19:24:15.202Z,107.13
2023-02-01T19:25:15.221Z,107.24
2023-02-01T19:26:15.205Z,105.22
2023-02-01T19:27:15.196Z,108.53
2023-02-01T19:28:15.199Z,106.30
2023-02-01T19:29:15.199Z,104.23
2023-02-01T19:30:15.217Z,106.68
2023-02-01T19:31:16.248Z,107.79
2023-02-01T19:32:15.226Z,107.89
2023-02-01T19:33:15.222Z,107.47
2023-02-01T19:34:15.235Z,108.29
2023-02-01T19:35:15.299Z,106.50
2023-02-01T19:36:15.346Z,108.88
2023-02-01T19:37:15.242Z,106.57
2023-02-01T19:38:15.286Z,105.79
2023-02-01T19:39:15.284Z,106.89
2023-02-01T19:40:15.306Z,107.88
2023-02-01T19:41:15.382Z,108.02
2023-02-01T19:42:15.336Z,105.98
2023-02-01T19:43:15.340Z,109.24
2023-02-01T19:44:15.376Z,109.36
2023-02-01T19:45:15.384Z,107.63
2023-02-01T19:46:15.452Z,109.39
2023-02-01T19:47:15.422Z,107.79
2023-02-01T19:48:15.447Z,105.40
2023-02-01T19:49:15.503Z,106.25
2023-02-01T19:50:15.519Z,106.39
2023-02-01T19:51:15.531Z,109.50
2023-02-01T19:52:15.562Z,106.69
2023-02-01T19:53:15.630Z,106.61
2023-02-01T19:54:15.582Z,105.69
2023-02-01T19:55:15.624Z,107.24
2023-02-01T19:56:15.631Z,106.39
2023-02-01T19:57:15.646Z,107.43
2023-02-01T19:58:15.669Z,106.92
2023-02-01T19:59:15.661Z,107.13
2023-02-01T20:00:14.790Z,108.21
2023-02-01T20:01:14.852Z,107.17
2023-02-01T20:02:14.817Z,106.51